Time;durP1;ratioP1;P1;durP2;ratioP2;P2;SDS_P1;SDS_P2;PMS_P1;PMS_P2;Temp;Humidity;BMP_temperature;BMP_pressure;BME280_temperature;BME280_humidity;BME280_pressure;Samples;Min_cycle;Max_cycle;Signal;HPM_P1;HPM_P2
2024/04/23 00:00:32;;;;;;;8.68;4.20;;;;;;;;;;5127200;27;20084;-78
2024/04/23 00:02:58;;;;;;;8.50;4.10;;;;;;;;;;5151612;27;20307;-78
2024/04/23 00:05:23;;;;;;;7.40;4.22;;;;;;;;;;5151724;27;20411;-78
2024/04/23 00:07:49;;;;;;;9.75;4.00;;;;;;;;;;5097198;27;20013;-80
2024/04/23 00:10:14;;;;;;;6.53;3.95;;;;;;;;;;5140888;27;20014;-80
2024/04/23 00:12:40;;;;;;;7.78;3.97;;;;;;;;;;5126064;27;20027;-79
2024/04/23 00:15:06;;;;;;;6.60;3.55;;;;;;;;;;5095940;27;20017;-80
2024/04/23 00:17:31;;;;;;;10.15;4.60;;;;;;;;;;5107981;27;20097;-80
2024/04/23 00:19:57;;;;;;;8.88;4.35;;;;;;;;;;5099282;27;20352;-80
2024/04/23 00:22:22;;;;;;;6.68;3.78;;;;;;;;;;5127449;27;20452;-79
2024/04/23 00:24:48;;;;;;;9.05;3.55;;;;;;;;;;5126657;27;20009;-81
2024/04/23 00:27:13;;;;;;;7.38;3.75;;;;;;;;;;5096647;27;20440;-78
2024/04/23 00:29:39;;;;;;;7.22;3.63;;;;;;;;;;5121698;27;20019;-79
2024/04/23 00:32:05;;;;;;;6.80;3.83;;;;;;;;;;5088422;27;20017;-79
2024/04/23 00:34:31;;;;;;;6.90;3.95;;;;;;;;;;5154251;27;20016;-80
2024/04/23 00:36:57;;;;;;;9.23;4.05;;;;;;;;;;5179202;27;20103;-79
2024/04/23 00:39:23;;;;;;;6.55;3.53;;;;;;;;;;5138404;27;20013;-80
2024/04/23 00:41:49;;;;;;;6.15;3.80;;;;;;;;;;5124147;27;20016;-79
2024/04/23 00:44:15;;;;;;;7.80;4.05;;;;;;;;;;5148011;27;20468;-80
2024/04/23 00:46:41;;;;;;;7.88;3.97;;;;;;;;;;5122611;27;20449;-78
2024/04/23 00:49:08;;;;;;;7.32;3.83;;;;;;;;;;5161925;27;20021;-81
2024/04/23 00:51:34;;;;;;;7.40;3.88;;;;;;;;;;5120568;27;20048;-80
2024/04/23 00:53:59;;;;;;;6.60;3.80;;;;;;;;;;5182346;27;20125;-78
2024/04/23 00:56:25;;;;;;;7.93;4.55;;;;;;;;;;5101966;27;20023;-78
2024/04/23 00:58:51;;;;;;;7.63;4.45;;;;;;;;;;5122435;27;20468;-79
2024/04/23 01:01:17;;;;;;;8.55;4.15;;;;;;;;;;5091408;27;20012;-79
2024/04/23 01:03:42;;;;;;;8.25;3.47;;;;;;;;;;5114856;27;20012;-79
2024/04/23 01:06:08;;;;;;;8.27;4.15;;;;;;;;;;5128837;27;20009;-80
2024/04/23 01:08:34;;;;;;;8.15;3.80;;;;;;;;;;5088983;27;20016;-79
2024/04/23 01:10:59;;;;;;;10.13;4.70;;;;;;;;;;5114209;27;20009;-81
2024/04/23 01:13:25;;;;;;;7.50;4.22;;;;;;;;;;5142887;27;20013;-79
2024/04/23 01:15:50;;;;;;;7.40;4.10;;;;;;;;;;5164691;27;20013;-78
2024/04/23 01:18:17;;;;;;;5.72;3.63;;;;;;;;;;5121653;27;20013;-80
2024/04/23 01:20:43;;;;;;;8.40;3.88;;;;;;;;;;5100780;27;20024;-79
2024/04/23 01:23:10;;;;;;;6.85;4.25;;;;;;;;;;5153731;27;20069;-79
2024/04/23 01:25:37;;;;;;;;;;;;;;;;;;5114951;27;20020;-81
2024/04/23 01:28:03;;;;;;;9.95;4.70;;;;;;;;;;5139730;27;19974;-79
2024/04/23 01:30:29;;;;;;;7.00;3.88;;;;;;;;;;5114000;27;20020;-78
2024/04/23 01:32:55;;;;;;;6.38;3.63;;;;;;;;;;5100313;27;20056;-80
2024/04/23 01:35:22;;;;;;;8.32;4.88;;;;;;;;;;5140105;27;20012;-82
2024/04/23 01:37:50;;;;;;;8.68;4.43;;;;;;;;;;5096631;27;20016;-79
2024/04/23 01:40:16;;;;;;;7.82;4.45;;;;;;;;;;5114081;27;20015;-80
2024/04/23 01:42:43;;;;;;;6.57;4.22;;;;;;;;;;5153659;27;20016;-78
2024/04/23 01:45:11;;;;;;;7.55;4.30;;;;;;;;;;5140507;27;20392;-80
2024/04/23 01:47:38;;;;;;;7.47;4.25;;;;;;;;;;5127529;27;20040;-80
2024/04/23 01:50:03;;;;;;;7.95;4.40;;;;;;;;;;5154288;27;20027;-80
2024/04/23 01:52:29;;;;;;;9.82;4.80;;;;;;;;;;5127569;27;20016;-80
2024/04/23 01:54:55;;;;;;;7.72;4.60;;;;;;;;;;5088601;27;20017;-80
2024/04/23 01:57:20;;;;;;;7.47;4.63;;;;;;;;;;5101608;27;20024;-79
2024/04/23 02:00:01;;;;;;;7.95;4.53;;;;;;;;;;5126225;27;20032;-80
2024/04/23 02:02:27;;;;;;;8.10;4.57;;;;;;;;;;5094966;27;20033;-80
2024/04/23 02:04:53;;;;;;;10.50;4.30;;;;;;;;;;5119900;27;20013;-79
2024/04/23 02:07:19;;;;;;;8.77;4.85;;;;;;;;;;5180235;27;20016;-78
2024/04/23 02:09:45;;;;;;;9.55;4.57;;;;;;;;;;5098367;27;20013;-79
2024/04/23 02:12:15;;;;;;;8.27;4.80;;;;;;;;;;5152767;27;20091;-78
2024/04/23 02:14:41;;;;;;;9.02;4.97;;;;;;;;;;5124492;27;20067;-78
2024/04/23 02:17:07;;;;;;;8.45;4.65;;;;;;;;;;5123188;27;20012;-80
2024/04/23 02:19:32;;;;;;;7.72;4.28;;;;;;;;;;5112063;27;20024;-79
2024/04/23 02:21:58;;;;;;;9.00;4.82;;;;;;;;;;5094984;27;20013;-78
2024/04/23 02:24:23;;;;;;;9.57;5.07;;;;;;;;;;5150447;27;20095;-79
2024/04/23 02:26:49;;;;;;;7.57;3.97;;;;;;;;;;5085345;27;20461;-77
2024/04/23 02:29:15;;;;;;;9.20;5.00;;;;;;;;;;5150747;27;20008;-78
2024/04/23 02:31:40;;;;;;;8.68;4.68;;;;;;;;;;5124526;27;20027;-78
2024/04/23 02:34:06;;;;;;;8.57;4.82;;;;;;;;;;5125035;27;20012;-79
2024/04/23 02:36:31;;;;;;;8.57;4.93;;;;;;;;;;5152469;27;20031;-79
2024/04/23 02:38:57;;;;;;;9.52;4.50;;;;;;;;;;5125356;27;20539;-79
2024/04/23 02:41:23;;;;;;;8.98;5.30;;;;;;;;;;5116580;27;20023;-78
2024/04/23 02:43:48;;;;;;;9.27;4.63;;;;;;;;;;5120075;27;20028;-80
2024/04/23 02:46:14;;;;;;;11.65;4.35;;;;;;;;;;5121282;27;20503;-80
2024/04/23 02:48:40;;;;;;;8.15;4.55;;;;;;;;;;5123193;27;20009;-78
2024/04/23 02:51:05;;;;;;;8.40;4.90;;;;;;;;;;5154235;27;20008;-80
2024/04/23 02:53:31;;;;;;;7.53;4.38;;;;;;;;;;5102542;27;20023;-79
2024/04/23 02:55:57;;;;;;;11.13;5.10;;;;;;;;;;5124813;27;20514;-78
2024/04/23 02:58:22;;;;;;;8.48;4.90;;;;;;;;;;5185854;27;20495;-78
2024/04/23 03:00:48;;;;;;;9.77;5.38;;;;;;;;;;5128419;27;20008;-80
2024/04/23 03:03:14;;;;;;;8.50;5.05;;;;;;;;;;5162679;27;20019;-80
2024/04/23 03:05:39;;;;;;;9.43;5.25;;;;;;;;;;5123175;27;20205;-81
2024/04/23 03:08:05;;;;;;;7.32;5.07;;;;;;;;;;5155929;27;20459;-80
2024/04/23 03:10:31;;;;;;;7.88;5.22;;;;;;;;;;5153349;27;20349;-81
2024/04/23 03:12:56;;;;;;;8.88;4.80;;;;;;;;;;5182015;27;20514;-79
2024/04/23 03:15:22;;;;;;;9.10;5.28;;;;;;;;;;5147311;27;20020;-80
2024/04/23 03:17:47;;;;;;;8.85;5.10;;;;;;;;;;5144382;27;20479;-79
2024/04/23 03:20:13;;;;;;;11.75;5.15;;;;;;;;;;5177802;27;20035;-81
2024/04/23 03:22:39;;;;;;;14.00;5.70;;;;;;;;;;5151448;27;20109;-80
2024/04/23 03:25:05;;;;;;;10.07;5.60;;;;;;;;;;5101616;27;20012;-78
2024/04/23 03:27:30;;;;;;;9.27;5.13;;;;;;;;;;5094019;27;20013;-80
2024/04/23 03:29:56;;;;;;;9.27;5.43;;;;;;;;;;5122916;27;20408;-79
2024/04/23 03:32:21;;;;;;;10.52;5.43;;;;;;;;;;5112748;27;20015;-79
2024/04/23 03:34:47;;;;;;;12.60;5.95;;;;;;;;;;5111135;27;20024;-80
2024/04/23 03:37:12;;;;;;;8.95;5.05;;;;;;;;;;5091223;27;20024;-79
2024/04/23 03:39:38;;;;;;;9.77;5.50;;;;;;;;;;5132288;27;20022;-78
2024/04/23 03:42:04;;;;;;;11.82;5.65;;;;;;;;;;5157929;27;20020;-80
2024/04/23 03:44:29;;;;;;;11.35;5.70;;;;;;;;;;5128410;27;20008;-79
2024/04/23 03:46:58;;;;;;;12.20;5.47;;;;;;;;;;5103426;27;20027;-79
2024/04/23 03:49:24;;;;;;;12.45;5.63;;;;;;;;;;5130497;27;20040;-78
2024/04/23 03:51:49;;;;;;;11.00;5.65;;;;;;;;;;5184211;27;20012;-79
2024/04/23 03:54:15;;;;;;;10.90;6.13;;;;;;;;;;5096562;27;20380;-78
2024/04/23 03:56:40;;;;;;;11.52;6.10;;;;;;;;;;5122865;27;20013;-78
2024/04/23 03:59:06;;;;;;;11.85;6.70;;;;;;;;;;5129978;27;20004;-78
2024/04/23 04:01:32;;;;;;;10.00;5.72;;;;;;;;;;5157552;27;20027;-79
2024/04/23 04:06:42;;;;;;;13.38;6.53;;;;;;;;;;5172766;27;20036;-79
2024/04/23 04:09:07;;;;;;;10.63;5.93;;;;;;;;;;5146408;27;20025;-79
2024/04/23 04:11:34;;;;;;;9.93;5.78;;;;;;;;;;5161530;27;20012;-79
2024/04/23 04:14:00;;;;;;;10.75;6.20;;;;;;;;;;5122721;27;20017;-79
2024/04/23 04:16:26;;;;;;;12.30;5.72;;;;;;;;;;5137873;27;20012;-79
2024/04/23 04:18:51;;;;;;;9.90;5.78;;;;;;;;;;5136440;27;20020;-78
2024/04/23 04:21:17;;;;;;;13.02;7.07;;;;;;;;;;5176557;27;20020;-80
2024/04/23 04:23:42;;;;;;;16.83;6.38;;;;;;;;;;5142546;27;20009;-80
2024/04/23 04:26:12;;;;;;;12.40;6.40;;;;;;;;;;5123043;27;20013;-79
2024/04/23 04:28:38;;;;;;;13.55;5.95;;;;;;;;;;5119050;27;20558;-80
2024/04/23 04:31:03;;;;;;;11.50;5.82;;;;;;;;;;5157271;27;20016;-80
2024/04/23 04:33:29;;;;;;;15.90;6.25;;;;;;;;;;5123119;27;20021;-79
2024/04/23 04:35:54;;;;;;;14.80;6.65;;;;;;;;;;5137970;27;20083;-79
2024/04/23 04:38:20;;;;;;;12.50;6.57;;;;;;;;;;5113480;27;20088;-80
2024/04/23 04:40:46;;;;;;;12.25;6.63;;;;;;;;;;5153366;27;20016;-78
2024/04/23 04:43:11;;;;;;;12.07;6.57;;;;;;;;;;5100247;27;20009;-80
2024/04/23 04:45:37;;;;;;;12.75;6.53;;;;;;;;;;5152858;27;20020;-80
2024/04/23 04:48:02;;;;;;;13.90;7.25;;;;;;;;;;5124372;27;20036;-80
2024/04/23 04:50:28;;;;;;;11.23;6.03;;;;;;;;;;5103475;27;20016;-78
2024/04/23 04:52:53;;;;;;;12.07;6.55;;;;;;;;;;5177326;27;20089;-79
2024/04/23 04:55:19;;;;;;;13.30;6.38;;;;;;;;;;5153513;27;20012;-78
2024/04/23 04:57:45;;;;;;;11.13;6.13;;;;;;;;;;5112231;27;20100;-77
2024/04/23 05:00:11;;;;;;;16.17;7.70;;;;;;;;;;5112463;27;20012;-79
2024/04/23 05:02:37;;;;;;;12.63;7.10;;;;;;;;;;5126713;27;20012;-79
2024/04/23 05:05:03;;;;;;;15.85;7.45;;;;;;;;;;5138187;27;20031;-79
2024/04/23 05:07:29;;;;;;;14.07;7.55;;;;;;;;;;5127771;27;20099;-81
2024/04/23 05:09:55;;;;;;;14.85;8.23;;;;;;;;;;5097823;27;20048;-79
2024/04/23 05:12:21;;;;;;;15.27;7.78;;;;;;;;;;5124603;27;20016;-78
2024/04/23 05:14:47;;;;;;;17.52;8.20;;;;;;;;;;5125862;27;20004;-79
2024/04/23 05:17:12;;;;;;;19.13;8.45;;;;;;;;;;5152233;27;20027;-79
2024/04/23 05:19:38;;;;;;;17.13;8.15;;;;;;;;;;5111852;27;20019;-79
2024/04/23 05:22:03;;;;;;;17.17;8.20;;;;;;;;;;5151499;27;20028;-78
2024/04/23 05:24:29;;;;;;;12.77;7.32;;;;;;;;;;5099723;27;20031;-78
2024/04/23 05:26:54;;;;;;;15.05;7.50;;;;;;;;;;5097352;27;20013;-78
2024/04/23 05:29:20;;;;;;;270.92;32.17;;;;;;;;;;5099567;27;20020;-78
2024/04/23 05:34:31;;;;;;;17.48;7.50;;;;;;;;;;5125179;27;20087;-77
2024/04/23 05:36:56;;;;;;;37.65;10.13;;;;;;;;;;5164565;27;20024;-79
2024/04/23 05:39:22;;;;;;;16.88;8.07;;;;;;;;;;5161133;27;20032;-78
2024/04/23 05:41:47;;;;;;;17.08;7.20;;;;;;;;;;5132303;27;20023;-79
2024/04/23 05:44:13;;;;;;;13.02;7.60;;;;;;;;;;5096848;27;20024;-79
2024/04/23 05:46:39;;;;;;;12.32;7.18;;;;;;;;;;5098264;27;20013;-81
2024/04/23 05:49:23;;;;;;;49.00;9.82;;;;;;;;;;5130500;27;20012;-78
2024/04/23 05:52:27;;;;;;;12.55;7.20;;;;;;;;;;5119941;27;20008;-77
2024/04/23 05:55:26;;;;;;;11.00;6.93;;;;;;;;;;5138869;27;20012;-79
2024/04/23 05:57:52;;;;;;;15.95;7.03;;;;;;;;;;5124691;27;20408;-80
2024/04/23 06:00:18;;;;;;;12.85;6.57;;;;;;;;;;5112158;27;20084;-77
2024/04/23 06:02:44;;;;;;;11.73;6.53;;;;;;;;;;5132752;27;20013;-78
2024/04/23 06:05:09;;;;;;;16.85;6.95;;;;;;;;;;5151886;27;20024;-79
2024/04/23 06:07:35;;;;;;;24.77;8.32;;;;;;;;;;5125194;27;20027;-79
2024/04/23 06:10:01;;;;;;;17.73;7.35;;;;;;;;;;5133939;27;20017;-79
2024/04/23 06:12:26;;;;;;;14.00;7.55;;;;;;;;;;5089160;27;20013;-79
2024/04/23 06:14:52;;;;;;;28.35;9.57;;;;;;;;;;5094563;27;20013;-79
2024/04/23 06:17:18;;;;;;;13.90;7.10;;;;;;;;;;5092230;27;20013;-80
2024/04/23 06:19:49;;;;;;;44.10;13.13;;;;;;;;;;5144977;27;20012;-79
2024/04/23 06:22:19;;;;;;;11.38;7.20;;;;;;;;;;5146036;27;20021;-80
2024/04/23 06:24:46;;;;;;;14.15;6.90;;;;;;;;;;5118950;27;20016;-78
2024/04/23 06:27:11;;;;;;;13.77;6.90;;;;;;;;;;5124365;27;20017;-79
2024/04/23 06:29:37;;;;;;;13.93;6.38;;;;;;;;;;5152717;27;20035;-80
2024/04/23 06:32:03;;;;;;;10.30;6.07;;;;;;;;;;5098605;27;20445;-79
2024/04/23 06:34:28;;;;;;;12.40;5.80;;;;;;;;;;5115696;27;20036;-80
2024/04/23 06:36:54;;;;;;;9.20;5.13;;;;;;;;;;5148702;27;20027;-80
2024/04/23 06:39:19;;;;;;;13.13;5.80;;;;;;;;;;5120541;27;20016;-80
2024/04/23 06:41:45;;;;;;;17.63;6.72;;;;;;;;;;5147394;27;20074;-80
2024/04/23 06:44:10;;;;;;;13.43;5.97;;;;;;;;;;5125588;27;20028;-80
2024/04/23 06:46:36;;;;;;;15.85;5.72;;;;;;;;;;5185743;27;20027;-79
2024/04/23 06:49:02;;;;;;;9.80;4.95;;;;;;;;;;5178163;27;20100;-79
2024/04/23 06:51:27;;;;;;;8.25;5.00;;;;;;;;;;5115190;27;20024;-78
2024/04/23 06:53:54;;;;;;;7.65;4.95;;;;;;;;;;5155481;27;20013;-80
2024/04/23 06:56:19;;;;;;;9.18;4.13;;;;;;;;;;5100761;27;20013;-81
2024/04/23 06:58:45;;;;;;;8.38;4.68;;;;;;;;;;5141730;27;20027;-80
2024/04/23 07:01:12;;;;;;;5.93;3.95;;;;;;;;;;5128107;27;20027;-80
2024/04/23 07:03:39;;;;;;;8.90;4.82;;;;;;;;;;5126284;27;20020;-79
2024/04/23 07:06:04;;;;;;;8.57;4.97;;;;;;;;;;5095354;27;20032;-80
2024/04/23 07:08:30;;;;;;;6.35;4.10;;;;;;;;;;5106202;27;20016;-80
2024/04/23 07:10:56;;;;;;;5.88;3.00;;;;;;;;;;5105154;27;20013;-79
2024/04/23 07:13:22;;;;;;;5.07;2.70;;;;;;;;;;5149990;27;20087;-80
2024/04/23 07:15:47;;;;;;;5.30;3.03;;;;;;;;;;5136236;27;20024;-80
2024/04/23 07:18:16;;;;;;;5.18;2.80;;;;;;;;;;5115117;27;20016;-80
2024/04/23 07:20:42;;;;;;;13.48;4.53;;;;;;;;;;5102165;27;20028;-81
2024/04/23 07:23:08;;;;;;;6.15;2.97;;;;;;;;;;5133825;27;20347;-79
2024/04/23 07:25:34;;;;;;;4.43;2.05;;;;;;;;;;5163021;27;20012;-81
2024/04/23 07:28:00;;;;;;;7.90;2.63;;;;;;;;;;5131694;27;20020;-79
2024/04/23 07:30:28;;;;;;;15.68;4.72;;;;;;;;;;5114974;27;20013;-80
2024/04/23 07:32:54;;;;;;;8.32;3.60;;;;;;;;;;5158297;27;20020;-81
2024/04/23 07:35:23;;;;;;;12.52;3.47;;;;;;;;;;5128889;27;20368;-78
2024/04/23 07:37:49;;;;;;;6.05;3.50;;;;;;;;;;5136372;27;20020;-81
2024/04/23 07:40:15;;;;;;;6.97;3.22;;;;;;;;;;5154131;27;20024;-80
2024/04/23 07:42:41;;;;;;;33.33;6.25;;;;;;;;;;5183146;27;20463;-80
2024/04/23 07:45:07;;;;;;;10.85;3.80;;;;;;;;;;5135367;27;20009;-81
2024/04/23 07:47:33;;;;;;;10.43;3.40;;;;;;;;;;5135828;27;20027;-80
2024/04/23 07:49:59;;;;;;;7.97;3.67;;;;;;;;;;5107576;27;20017;-80
2024/04/23 07:52:26;;;;;;;7.85;3.50;;;;;;;;;;5133633;27;20351;-81
2024/04/23 07:54:52;;;;;;;7.32;3.50;;;;;;;;;;5129997;27;20037;-80
2024/04/23 07:57:19;;;;;;;6.07;3.53;;;;;;;;;;5117066;27;20028;-81
2024/04/23 07:59:44;;;;;;;5.38;3.22;;;;;;;;;;5142669;27;20017;-80
2024/04/23 08:02:10;;;;;;;5.50;2.65;;;;;;;;;;5103324;27;20490;-79
2024/04/23 08:04:36;;;;;;;9.43;3.53;;;;;;;;;;5100718;27;20472;-80
2024/04/23 08:07:01;;;;;;;6.20;3.00;;;;;;;;;;5130437;27;20016;-81
2024/04/23 08:09:29;;;;;;;7.03;2.95;;;;;;;;;;5161087;27;20021;-81
2024/04/23 08:11:54;;;;;;;4.82;3.13;;;;;;;;;;5111543;27;20101;-79
2024/04/23 08:14:20;;;;;;;5.00;2.80;;;;;;;;;;5125450;27;20648;-77
2024/04/23 08:16:46;;;;;;;5.00;2.67;;;;;;;;;;5112810;27;20728;-77
2024/04/23 08:19:13;;;;;;;5.07;2.97;;;;;;;;;;5174370;27;20028;-79
2024/04/23 08:21:39;;;;;;;6.03;2.83;;;;;;;;;;5138885;27;20481;-79
2024/04/23 08:24:08;;;;;;;5.30;3.05;;;;;;;;;;5111258;27;20027;-77
2024/04/23 08:26:33;;;;;;;;;;;;;;;;;;5126152;27;20027;-80
2024/04/23 08:28:59;;;;;;;4.75;2.85;;;;;;;;;;5125422;27;19936;-80
2024/04/23 08:31:25;;;;;;;4.47;2.65;;;;;;;;;;5098775;27;20017;-78
2024/04/23 08:33:50;;;;;;;4.97;2.78;;;;;;;;;;5151823;27;20017;-78
2024/04/23 08:36:16;;;;;;;6.28;2.85;;;;;;;;;;5086710;27;20023;-79
2024/04/23 08:38:42;;;;;;;9.10;2.78;;;;;;;;;;5099292;27;20025;-78
2024/04/23 08:41:13;;;;;;;7.45;2.95;;;;;;;;;;5125566;27;20061;-79
2024/04/23 08:43:41;;;;;;;4.55;2.38;;;;;;;;;;5094590;27;20020;-79
2024/04/23 08:46:08;;;;;;;5.63;3.05;;;;;;;;;;5130599;27;20017;-79
2024/04/23 08:48:33;;;;;;;6.50;2.90;;;;;;;;;;5098512;27;20032;-80
2024/04/23 08:51:00;;;;;;;10.00;3.35;;;;;;;;;;5153171;27;20044;-81
2024/04/23 08:53:26;;;;;;;6.55;3.00;;;;;;;;;;5090830;27;20094;-79
2024/04/23 08:55:55;;;;;;;11.48;2.83;;;;;;;;;;5153359;27;20112;-80
2024/04/23 08:58:21;;;;;;;6.25;2.58;;;;;;;;;;5126002;27;20013;-79
2024/04/23 09:00:49;;;;;;;4.80;2.47;;;;;;;;;;5113506;27;20013;-78
2024/04/23 09:03:15;;;;;;;8.20;2.70;;;;;;;;;;5124213;27;20032;-78
2024/04/23 09:05:41;;;;;;;5.60;3.03;;;;;;;;;;5108328;27;20028;-79
2024/04/23 09:08:07;;;;;;;9.02;2.92;;;;;;;;;;5129500;27;20473;-79
2024/04/23 09:10:33;;;;;;;9.77;2.58;;;;;;;;;;5184471;27;20020;-79
2024/04/23 09:12:59;;;;;;;4.60;2.70;;;;;;;;;;5127834;27;20028;-80
2024/04/23 09:15:25;;;;;;;28.08;5.60;;;;;;;;;;5101169;27;20017;-80
2024/04/23 09:17:55;;;;;;;8.50;3.20;;;;;;;;;;5127867;27;20013;-79
2024/04/23 09:20:24;;;;;;;5.07;2.20;;;;;;;;;;5114952;27;20008;-79
2024/04/23 09:22:52;;;;;;;6.40;2.50;;;;;;;;;;5096416;27;20564;-78
2024/04/23 09:25:19;;;;;;;15.02;3.35;;;;;;;;;;5128136;27;20016;-81
2024/04/23 09:27:44;;;;;;;5.15;2.20;;;;;;;;;;5116181;27;20012;-81
2024/04/23 09:30:10;;;;;;;5.22;2.28;;;;;;;;;;5129470;27;20020;-78
2024/04/23 09:32:36;;;;;;;5.30;2.00;;;;;;;;;;5155483;27;20119;-81
2024/04/23 09:35:01;;;;;;;5.90;2.40;;;;;;;;;;5100811;27;20045;-78
2024/04/23 09:37:27;;;;;;;8.10;2.35;;;;;;;;;;5102803;27;20113;-80
2024/04/23 09:40:05;;;;;;;5.70;2.28;;;;;;;;;;5128106;27;20070;-79
2024/04/23 09:42:31;;;;;;;10.45;2.85;;;;;;;;;;5098829;27;20017;-80
2024/04/23 09:44:56;;;;;;;8.73;2.38;;;;;;;;;;5158653;27;20020;-81
2024/04/23 09:47:22;;;;;;;5.53;3.15;;;;;;;;;;5162446;27;20012;-80
2024/04/23 09:49:57;;;;;;;4.90;2.08;;;;;;;;;;5094973;27;20009;-80
2024/04/23 09:52:31;;;;;;;4.32;2.28;;;;;;;;;;5101142;27;20080;-79
2024/04/23 09:54:57;;;;;;;6.28;2.33;;;;;;;;;;5156680;27;20016;-80
2024/04/23 09:57:22;;;;;;;4.78;2.33;;;;;;;;;;5094452;27;20024;-78
2024/04/23 09:59:48;;;;;;;7.20;2.35;;;;;;;;;;5124878;27;20460;-77
2024/04/23 10:02:18;;;;;;;4.63;2.47;;;;;;;;;;5119702;27;20021;-77
2024/04/23 10:04:43;;;;;;;4.68;2.55;;;;;;;;;;5157825;27;20012;-78
2024/04/23 10:07:10;;;;;;;4.05;2.45;;;;;;;;;;5124047;27;20351;-82
2024/04/23 10:09:36;;;;;;;5.78;2.60;;;;;;;;;;5117699;27;20427;-81
2024/04/23 10:12:05;;;;;;;4.90;2.40;;;;;;;;;;5150259;27;20049;-80
2024/04/23 10:14:40;;;;;;;9.98;3.05;;;;;;;;;;5097186;27;20456;-80
2024/04/23 10:17:08;;;;;;;8.40;2.45;;;;;;;;;;5147899;27;20024;-79
2024/04/23 10:19:34;;;;;;;3.65;1.90;;;;;;;;;;5171870;27;20372;-80
2024/04/23 10:22:01;;;;;;;3.65;1.67;;;;;;;;;;5110396;27;20057;-80
2024/04/23 10:24:26;;;;;;;4.78;1.83;;;;;;;;;;5123291;27;20027;-78
2024/04/23 10:26:52;;;;;;;4.05;2.05;;;;;;;;;;5104514;27;20024;-80
2024/04/23 10:29:18;;;;;;;4.13;2.00;;;;;;;;;;5154347;27;20087;-79
2024/04/23 10:31:44;;;;;;;3.45;1.75;;;;;;;;;;5121616;27;20480;-79
2024/04/23 10:34:11;;;;;;;5.25;1.92;;;;;;;;;;5135735;27;20012;-78
2024/04/23 10:36:40;;;;;;;5.90;2.33;;;;;;;;;;5123175;27;20016;-78
2024/04/23 10:39:07;;;;;;;3.30;1.70;;;;;;;;;;5149744;27;20032;-78
2024/04/23 10:41:37;;;;;;;4.07;2.15;;;;;;;;;;5149598;27;20348;-79
2024/04/23 10:44:04;;;;;;;3.80;1.92;;;;;;;;;;5136764;27;20012;-81
2024/04/23 10:46:29;;;;;;;3.08;1.33;;;;;;;;;;5096259;27;20096;-81
2024/04/23 10:48:55;;;;;;;3.10;1.50;;;;;;;;;;5149225;27;20468;-79
2024/04/23 10:51:22;;;;;;;5.00;2.00;;;;;;;;;;5136326;27;20016;-79
2024/04/23 10:53:48;;;;;;;3.63;2.10;;;;;;;;;;5122302;27;20031;-81
2024/04/23 10:56:24;;;;;;;5.07;1.83;;;;;;;;;;5144711;27;20017;-79
2024/04/23 10:59:10;;;;;;;2.65;1.45;;;;;;;;;;5118106;27;20016;-79
2024/04/23 11:01:46;;;;;;;4.03;1.70;;;;;;;;;;5112595;27;20041;-81
2024/04/23 11:04:11;;;;;;;3.55;1.75;;;;;;;;;;5158393;27;20053;-79
2024/04/23 11:06:38;;;;;;;6.80;2.40;;;;;;;;;;5112808;27;20013;-80
2024/04/23 11:09:12;;;;;;;4.30;2.00;;;;;;;;;;5122165;27;20012;-78
2024/04/23 11:11:38;;;;;;;5.93;1.67;;;;;;;;;;5122989;27;20012;-79
2024/04/23 11:14:04;;;;;;;2.70;1.63;;;;;;;;;;5117581;27;20054;-78
2024/04/23 11:16:29;;;;;;;3.25;1.88;;;;;;;;;;5078594;27;20009;-81
2024/04/23 11:18:57;;;;;;;4.05;2.20;;;;;;;;;;5093356;27;20016;-81
2024/04/23 11:21:23;;;;;;;6.03;1.80;;;;;;;;;;5123103;27;20012;-81
2024/04/23 11:23:49;;;;;;;2.72;1.60;;;;;;;;;;5123215;27;20008;-78
2024/04/23 11:26:15;;;;;;;7.63;2.10;;;;;;;;;;5197904;27;20390;-79
2024/04/23 11:28:40;;;;;;;6.57;2.20;;;;;;;;;;5170802;27;20012;-80
2024/04/23 11:31:06;;;;;;;5.25;2.00;;;;;;;;;;5111842;27;20016;-80
2024/04/23 11:33:32;;;;;;;4.97;2.05;;;;;;;;;;5124431;27;20024;-80
2024/04/23 11:36:02;;;;;;;5.00;1.67;;;;;;;;;;5124869;27;20004;-80
2024/04/23 11:38:38;;;;;;;7.05;2.22;;;;;;;;;;5092928;27;20028;-80
2024/04/23 11:41:04;;;;;;;7.63;2.50;;;;;;;;;;5118840;27;20008;-80
2024/04/23 11:43:30;;;;;;;4.80;2.10;;;;;;;;;;5139817;27;20020;-80
2024/04/23 11:45:56;;;;;;;4.45;1.90;;;;;;;;;;5163950;27;20354;-80
2024/04/23 11:48:21;;;;;;;3.00;1.65;;;;;;;;;;5122227;27;20016;-79
2024/04/23 11:50:47;;;;;;;5.55;1.80;;;;;;;;;;5135927;27;20057;-80
2024/04/23 11:53:13;;;;;;;6.85;2.22;;;;;;;;;;5143565;27;20013;-81
2024/04/23 11:55:38;;;;;;;3.22;1.75;;;;;;;;;;5168859;27;20012;-81
2024/04/23 11:58:04;;;;;;;3.20;1.60;;;;;;;;;;5124955;27;20023;-81
2024/04/23 12:00:30;;;;;;;2.97;1.55;;;;;;;;;;5138533;27;20027;-80
2024/04/23 12:02:55;;;;;;;3.25;1.60;;;;;;;;;;5139603;27;20024;-78
2024/04/23 12:05:21;;;;;;;3.13;1.58;;;;;;;;;;5124204;27;20009;-81
2024/04/23 12:07:47;;;;;;;3.65;1.58;;;;;;;;;;5126694;27;20363;-81
2024/04/23 12:10:26;;;;;;;9.75;2.13;;;;;;;;;;5126666;27;20273;-81
2024/04/23 12:12:51;;;;;;;4.63;1.75;;;;;;;;;;5153421;27;20052;-79
2024/04/23 12:15:18;;;;;;;3.47;1.77;;;;;;;;;;5126112;27;20016;-79
2024/04/23 12:17:43;;;;;;;2.58;1.35;;;;;;;;;;5166991;27;20054;-79
2024/04/23 12:20:10;;;;;;;2.50;1.50;;;;;;;;;;5150774;27;20061;-80
2024/04/23 12:22:35;;;;;;;3.00;1.45;;;;;;;;;;5124806;27;20012;-80
2024/04/23 12:25:01;;;;;;;4.97;1.70;;;;;;;;;;5125150;27;20022;-78
2024/04/23 12:27:27;;;;;;;3.90;1.80;;;;;;;;;;5092973;27;20039;-81
2024/04/23 12:30:04;;;;;;;3.38;1.65;;;;;;;;;;5144728;27;20009;-79
2024/04/23 12:32:31;;;;;;;3.08;1.45;;;;;;;;;;5129510;27;20022;-78
2024/04/23 12:34:56;;;;;;;2.72;1.58;;;;;;;;;;5095386;27;20017;-79
2024/04/23 12:37:22;;;;;;;3.72;2.42;;;;;;;;;;5206059;27;20024;-81
2024/04/23 12:39:47;;;;;;;3.75;2.00;;;;;;;;;;5183095;27;20011;-80
2024/04/23 12:42:13;;;;;;;3.00;1.70;;;;;;;;;;5193696;27;20049;-81
2024/04/23 12:44:39;;;;;;;4.45;1.45;;;;;;;;;;5160198;27;20012;-80
2024/04/23 12:47:04;;;;;;;5.75;2.70;;;;;;;;;;5177811;27;20026;-81
2024/04/23 12:49:35;;;;;;;3.08;1.40;;;;;;;;;;5119943;27;20580;-81
2024/04/23 12:52:00;;;;;;;3.75;1.30;;;;;;;;;;5124799;27;20343;-79
2024/04/23 12:54:26;;;;;;;14.10;3.70;;;;;;;;;;5095232;27;20040;-80
2024/04/23 12:56:52;;;;;;;3.05;1.55;;;;;;;;;;5149277;27;20105;-80
2024/04/23 12:59:18;;;;;;;5.20;1.80;;;;;;;;;;5123869;27;20044;-81
2024/04/23 13:01:44;;;;;;;2.38;1.40;;;;;;;;;;5124510;27;20087;-79
2024/04/23 13:04:09;;;;;;;3.50;1.60;;;;;;;;;;5149896;27;20008;-80
2024/04/23 13:06:36;;;;;;;2.22;1.30;;;;;;;;;;5190279;27;20087;-79
2024/04/23 13:09:02;;;;;;;2.95;1.52;;;;;;;;;;5151877;27;20005;-82
2024/04/23 13:11:27;;;;;;;3.17;1.23;;;;;;;;;;5149575;27;20043;-81
2024/04/23 13:13:53;;;;;;;3.75;1.48;;;;;;;;;;5115067;27;20024;-81
2024/04/23 13:16:19;;;;;;;2.90;1.45;;;;;;;;;;5127118;27;20031;-82
2024/04/23 13:18:44;;;;;;;2.80;1.45;;;;;;;;;;5149323;27;20012;-81
2024/04/23 13:21:10;;;;;;;3.90;1.83;;;;;;;;;;5152061;27;20081;-82
2024/04/23 13:23:36;;;;;;;3.03;1.63;;;;;;;;;;5125772;27;20027;-79
2024/04/23 13:26:01;;;;;;;3.00;1.50;;;;;;;;;;5131840;27;20012;-81
2024/04/23 13:28:27;;;;;;;2.97;1.60;;;;;;;;;;5126732;27;20012;-78
2024/04/23 13:30:56;;;;;;;2.90;1.50;;;;;;;;;;5151844;27;20020;-79
2024/04/23 13:33:23;;;;;;;3.20;1.65;;;;;;;;;;5152522;27;20021;-80
2024/04/23 13:35:49;;;;;;;2.92;1.45;;;;;;;;;;5123316;27;20104;-79
2024/04/23 13:38:15;;;;;;;2.78;1.40;;;;;;;;;;5147371;27;20016;-82
2024/04/23 13:40:41;;;;;;;5.30;1.63;;;;;;;;;;5119587;27;20028;-80
2024/04/23 13:43:09;;;;;;;3.22;1.75;;;;;;;;;;5153251;27;20464;-78
2024/04/23 13:45:38;;;;;;;13.27;4.50;;;;;;;;;;5115528;27;20014;-79
2024/04/23 13:48:03;;;;;;;;;;;;;;;;;;5124937;27;20442;-80
2024/04/23 13:50:29;;;;;;;2.78;1.50;;;;;;;;;;5111461;27;19976;-80
2024/04/23 13:52:55;;;;;;;3.17;2.10;;;;;;;;;;5116316;27;20028;-81
2024/04/23 13:55:20;;;;;;;5.22;1.73;;;;;;;;;;5168309;27;20064;-80
2024/04/23 13:57:46;;;;;;;2.47;1.40;;;;;;;;;;5191752;27;20476;-80
2024/04/23 14:00:13;;;;;;;3.03;1.80;;;;;;;;;;5122141;27;20021;-81
2024/04/23 14:02:38;;;;;;;2.60;1.40;;;;;;;;;;5119715;27;20023;-81
2024/04/23 14:05:04;;;;;;;5.30;1.48;;;;;;;;;;5146990;27;20013;-80
2024/04/23 14:07:32;;;;;;;2.97;1.30;;;;;;;;;;5147241;27;20012;-81
2024/04/23 14:09:57;;;;;;;2.70;1.33;;;;;;;;;;5114146;27;20016;-80
2024/04/23 14:12:25;;;;;;;3.42;1.52;;;;;;;;;;5135730;27;20016;-79
2024/04/23 14:14:51;;;;;;;3.17;1.60;;;;;;;;;;5120168;27;20472;-81
2024/04/23 14:17:17;;;;;;;3.88;1.70;;;;;;;;;;5118909;27;20008;-80
2024/04/23 14:19:43;;;;;;;4.05;1.70;;;;;;;;;;5117962;27;20013;-81
2024/04/23 14:22:09;;;;;;;3.88;1.50;;;;;;;;;;5141353;27;20024;-78
2024/04/23 14:24:34;;;;;;;3.58;1.80;;;;;;;;;;5146801;27;20008;-80
2024/04/23 14:27:00;;;;;;;3.28;1.65;;;;;;;;;;5170374;27;20515;-79
2024/04/23 14:29:26;;;;;;;4.20;1.70;;;;;;;;;;5149178;27;20027;-78
2024/04/23 14:31:51;;;;;;;3.08;1.75;;;;;;;;;;5116978;27;20025;-79
2024/04/23 14:34:23;;;;;;;6.50;2.15;;;;;;;;;;5112819;27;20008;-81
2024/04/23 14:36:52;;;;;;;7.28;2.03;;;;;;;;;;5139477;27;20015;-80
2024/04/23 14:39:17;;;;;;;4.00;1.60;;;;;;;;;;5114473;27;20008;-79
2024/04/23 14:41:43;;;;;;;2.90;1.75;;;;;;;;;;5177072;27;20004;-81